sensor_id;sensor_type;location;lat;lon;timestamp;P1;durP1;ratioP1;P2;durP2;ratioP2
27728;SDS011;15126;42.186;24.340;2024-01-10T00:02:04;18.33;;;7.85;;
27728;SDS011;15126;42.186;24.340;2024-01-10T00:04:29;20.15;;;9.30;;
27728;SDS011;15126;42.186;24.340;2024-01-10T00:06:55;21.55;;;10.27;;
27728;SDS011;15126;42.186;24.340;2024-01-10T00:09:20;14.63;;;7.47;;
27728;SDS011;15126;42.186;24.340;2024-01-10T00:11:46;17.17;;;8.80;;
27728;SDS011;15126;42.186;24.340;2024-01-10T00:14:11;22.45;;;9.77;;
27728;SDS011;15126;42.186;24.340;2024-01-10T00:16:36;19.92;;;9.80;;
27728;SDS011;15126;42.186;24.340;2024-01-10T00:19:02;17.42;;;8.13;;
27728;SDS011;15126;42.186;24.340;2024-01-10T00:21:27;16.38;;;7.93;;
27728;SDS011;15126;42.186;24.340;2024-01-10T00:23:53;23.45;;;9.93;;
27728;SDS011;15126;42.186;24.340;2024-01-10T00:26:19;20.65;;;9.38;;
27728;SDS011;15126;42.186;24.340;2024-01-10T00:28:44;18.00;;;9.60;;
27728;SDS011;15126;42.186;24.340;2024-01-10T00:31:11;19.08;;;9.65;;
27728;SDS011;15126;42.186;24.340;2024-01-10T00:33:39;22.17;;;10.18;;
27728;SDS011;15126;42.186;24.340;2024-01-10T00:36:05;18.15;;;9.13;;
27728;SDS011;15126;42.186;24.340;2024-01-10T00:38:31;21.73;;;11.13;;
27728;SDS011;15126;42.186;24.340;2024-01-10T00:40:57;17.75;;;9.15;;
27728;SDS011;15126;42.186;24.340;2024-01-10T00:43:23;20.40;;;9.82;;
27728;SDS011;15126;42.186;24.340;2024-01-10T00:45:48;20.50;;;8.93;;
27728;SDS011;15126;42.186;24.340;2024-01-10T00:48:14;28.52;;;11.77;;
27728;SDS011;15126;42.186;24.340;2024-01-10T00:50:39;33.25;;;11.57;;
27728;SDS011;15126;42.186;24.340;2024-01-10T00:53:04;25.88;;;11.88;;
27728;SDS011;15126;42.186;24.340;2024-01-10T00:55:30;25.85;;;11.80;;
27728;SDS011;15126;42.186;24.340;2024-01-10T00:57:55;23.48;;;10.05;;
27728;SDS011;15126;42.186;24.340;2024-01-10T01:00:21;33.28;;;11.77;;
27728;SDS011;15126;42.186;24.340;2024-01-10T01:02:46;26.02;;;11.60;;
27728;SDS011;15126;42.186;24.340;2024-01-10T01:05:12;25.08;;;11.20;;
27728;SDS011;15126;42.186;24.340;2024-01-10T01:07:37;20.52;;;10.52;;
27728;SDS011;15126;42.186;24.340;2024-01-10T01:10:03;23.83;;;10.43;;
27728;SDS011;15126;42.186;24.340;2024-01-10T01:12:29;24.90;;;11.20;;
27728;SDS011;15126;42.186;24.340;2024-01-10T01:14:54;18.45;;;8.63;;
27728;SDS011;15126;42.186;24.340;2024-01-10T01:17:20;19.48;;;9.85;;
27728;SDS011;15126;42.186;24.340;2024-01-10T01:19:45;17.83;;;8.10;;
27728;SDS011;15126;42.186;24.340;2024-01-10T01:22:10;20.73;;;10.40;;
27728;SDS011;15126;42.186;24.340;2024-01-10T01:24:36;18.10;;;9.40;;
27728;SDS011;15126;42.186;24.340;2024-01-10T01:27:02;23.08;;;10.35;;
27728;SDS011;15126;42.186;24.340;2024-01-10T01:29:28;20.65;;;9.00;;
27728;SDS011;15126;42.186;24.340;2024-01-10T01:31:54;22.55;;;10.35;;
27728;SDS011;15126;42.186;24.340;2024-01-10T01:34:19;16.30;;;6.90;;
27728;SDS011;15126;42.186;24.340;2024-01-10T01:36:45;22.80;;;9.90;;
27728;SDS011;15126;42.186;24.340;2024-01-10T01:39:10;25.10;;;8.98;;
27728;SDS011;15126;42.186;24.340;2024-01-10T01:41:38;18.40;;;8.75;;
27728;SDS011;15126;42.186;24.340;2024-01-10T01:44:04;17.88;;;8.68;;
27728;SDS011;15126;42.186;24.340;2024-01-10T01:46:29;18.25;;;8.18;;
27728;SDS011;15126;42.186;24.340;2024-01-10T01:48:56;16.63;;;8.35;;
27728;SDS011;15126;42.186;24.340;2024-01-10T01:51:21;17.33;;;9.55;;
27728;SDS011;15126;42.186;24.340;2024-01-10T01:53:48;18.60;;;9.88;;
27728;SDS011;15126;42.186;24.340;2024-01-10T01:56:14;20.38;;;10.02;;
27728;SDS011;15126;42.186;24.340;2024-01-10T02:01:08;17.77;;;8.02;;
27728;SDS011;15126;42.186;24.340;2024-01-10T02:03:35;20.15;;;8.43;;
27728;SDS011;15126;42.186;24.340;2024-01-10T02:06:03;19.30;;;8.73;;
27728;SDS011;15126;42.186;24.340;2024-01-10T02:08:32;18.35;;;8.70;;
27728;SDS011;15126;42.186;24.340;2024-01-10T02:10:59;18.40;;;8.48;;
27728;SDS011;15126;42.186;24.340;2024-01-10T02:13:26;19.98;;;10.00;;
27728;SDS011;15126;42.186;24.340;2024-01-10T02:15:52;17.88;;;8.98;;
27728;SDS011;15126;42.186;24.340;2024-01-10T02:18:17;18.30;;;9.57;;
27728;SDS011;15126;42.186;24.340;2024-01-10T02:20:43;17.88;;;9.07;;
27728;SDS011;15126;42.186;24.340;2024-01-10T02:23:10;19.63;;;9.32;;
27728;SDS011;15126;42.186;24.340;2024-01-10T02:25:35;20.98;;;8.77;;
27728;SDS011;15126;42.186;24.340;2024-01-10T02:28:01;25.90;;;10.82;;
27728;SDS011;15126;42.186;24.340;2024-01-10T02:30:27;19.50;;;10.05;;
27728;SDS011;15126;42.186;24.340;2024-01-10T02:32:52;23.38;;;10.13;;
27728;SDS011;15126;42.186;24.340;2024-01-10T02:35:18;17.25;;;9.48;;
27728;SDS011;15126;42.186;24.340;2024-01-10T02:37:43;17.95;;;9.10;;
27728;SDS011;15126;42.186;24.340;2024-01-10T02:40:10;14.93;;;7.75;;
27728;SDS011;15126;42.186;24.340;2024-01-10T02:42:36;15.70;;;7.35;;
27728;SDS011;15126;42.186;24.340;2024-01-10T02:45:01;18.83;;;8.18;;
27728;SDS011;15126;42.186;24.340;2024-01-10T02:47:27;15.20;;;7.10;;
27728;SDS011;15126;42.186;24.340;2024-01-10T02:49:54;15.43;;;6.53;;
27728;SDS011;15126;42.186;24.340;2024-01-10T02:52:19;13.75;;;6.15;;
27728;SDS011;15126;42.186;24.340;2024-01-10T02:54:45;13.15;;;7.00;;
27728;SDS011;15126;42.186;24.340;2024-01-10T02:57:11;11.75;;;5.30;;
27728;SDS011;15126;42.186;24.340;2024-01-10T02:59:37;14.55;;;8.05;;
27728;SDS011;15126;42.186;24.340;2024-01-10T03:02:03;16.88;;;6.85;;
27728;SDS011;15126;42.186;24.340;2024-01-10T03:04:28;9.70;;;5.75;;
27728;SDS011;15126;42.186;24.340;2024-01-10T03:06:54;10.27;;;5.80;;
27728;SDS011;15126;42.186;24.340;2024-01-10T03:09:20;15.65;;;6.50;;
27728;SDS011;15126;42.186;24.340;2024-01-10T03:11:45;11.02;;;5.72;;
27728;SDS011;15126;42.186;24.340;2024-01-10T03:14:10;12.43;;;6.65;;
27728;SDS011;15126;42.186;24.340;2024-01-10T03:16:36;13.38;;;6.20;;
27728;SDS011;15126;42.186;24.340;2024-01-10T03:19:03;11.93;;;5.72;;
27728;SDS011;15126;42.186;24.340;2024-01-10T03:21:28;12.20;;;6.70;;
27728;SDS011;15126;42.186;24.340;2024-01-10T03:23:55;14.98;;;7.15;;
27728;SDS011;15126;42.186;24.340;2024-01-10T03:26:21;12.27;;;6.28;;
27728;SDS011;15126;42.186;24.340;2024-01-10T03:28:47;13.10;;;7.78;;
27728;SDS011;15126;42.186;24.340;2024-01-10T03:31:12;19.13;;;9.18;;
27728;SDS011;15126;42.186;24.340;2024-01-10T03:33:38;15.43;;;7.00;;
27728;SDS011;15126;42.186;24.340;2024-01-10T03:36:04;13.80;;;6.82;;
27728;SDS011;15126;42.186;24.340;2024-01-10T03:38:31;10.90;;;5.28;;
27728;SDS011;15126;42.186;24.340;2024-01-10T03:40:56;9.13;;;6.18;;
27728;SDS011;15126;42.186;24.340;2024-01-10T03:43:22;10.80;;;5.20;;
27728;SDS011;15126;42.186;24.340;2024-01-10T03:45:47;9.65;;;5.15;;
27728;SDS011;15126;42.186;24.340;2024-01-10T03:48:12;11.70;;;5.75;;
27728;SDS011;15126;42.186;24.340;2024-01-10T03:50:38;9.00;;;5.30;;
27728;SDS011;15126;42.186;24.340;2024-01-10T03:53:03;12.05;;;5.15;;
27728;SDS011;15126;42.186;24.340;2024-01-10T03:55:29;8.73;;;4.65;;
27728;SDS011;15126;42.186;24.340;2024-01-10T03:57:55;9.10;;;5.55;;
27728;SDS011;15126;42.186;24.340;2024-01-10T04:02:48;10.68;;;5.13;;
27728;SDS011;15126;42.186;24.340;2024-01-10T04:05:13;11.98;;;5.35;;
27728;SDS011;15126;42.186;24.340;2024-01-10T04:07:39;11.18;;;5.32;;
27728;SDS011;15126;42.186;24.340;2024-01-10T04:10:09;10.75;;;5.68;;
27728;SDS011;15126;42.186;24.340;2024-01-10T04:12:38;12.15;;;6.47;;
27728;SDS011;15126;42.186;24.340;2024-01-10T04:15:03;17.05;;;7.55;;
27728;SDS011;15126;42.186;24.340;2024-01-10T04:17:29;13.88;;;6.15;;
27728;SDS011;15126;42.186;24.340;2024-01-10T04:19:57;10.35;;;5.07;;
27728;SDS011;15126;42.186;24.340;2024-01-10T04:22:25;10.65;;;5.57;;
27728;SDS011;15126;42.186;24.340;2024-01-10T04:24:51;9.43;;;4.82;;
27728;SDS011;15126;42.186;24.340;2024-01-10T04:27:17;12.18;;;4.93;;
27728;SDS011;15126;42.186;24.340;2024-01-10T04:29:45;8.93;;;4.78;;
27728;SDS011;15126;42.186;24.340;2024-01-10T04:32:10;11.30;;;4.75;;
27728;SDS011;15126;42.186;24.340;2024-01-10T04:34:36;10.10;;;5.10;;
27728;SDS011;15126;42.186;24.340;2024-01-10T04:37:01;11.02;;;5.10;;
27728;SDS011;15126;42.186;24.340;2024-01-10T04:39:27;13.52;;;6.22;;
27728;SDS011;15126;42.186;24.340;2024-01-10T04:41:53;14.38;;;5.40;;
27728;SDS011;15126;42.186;24.340;2024-01-10T04:44:19;11.60;;;5.88;;
27728;SDS011;15126;42.186;24.340;2024-01-10T04:46:44;14.23;;;5.30;;
27728;SDS011;15126;42.186;24.340;2024-01-10T04:49:10;10.65;;;5.57;;
27728;SDS011;15126;42.186;24.340;2024-01-10T04:51:35;14.15;;;6.35;;
27728;SDS011;15126;42.186;24.340;2024-01-10T04:54:01;10.40;;;5.72;;
27728;SDS011;15126;42.186;24.340;2024-01-10T04:56:26;10.48;;;5.30;;
27728;SDS011;15126;42.186;24.340;2024-01-10T04:58:52;8.98;;;5.15;;
27728;SDS011;15126;42.186;24.340;2024-01-10T05:01:17;9.82;;;5.38;;
27728;SDS011;15126;42.186;24.340;2024-01-10T05:03:43;13.65;;;6.15;;
27728;SDS011;15126;42.186;24.340;2024-01-10T05:06:12;9.30;;;5.32;;
27728;SDS011;15126;42.186;24.340;2024-01-10T05:08:37;9.18;;;4.78;;
27728;SDS011;15126;42.186;24.340;2024-01-10T05:11:03;12.25;;;5.55;;
27728;SDS011;15126;42.186;24.340;2024-01-10T05:13:30;15.93;;;5.13;;
27728;SDS011;15126;42.186;24.340;2024-01-10T05:15:55;10.85;;;4.82;;
27728;SDS011;15126;42.186;24.340;2024-01-10T05:18:21;8.07;;;4.45;;
27728;SDS011;15126;42.186;24.340;2024-01-10T05:21:21;8.55;;;3.78;;
27728;SDS011;15126;42.186;24.340;2024-01-10T05:23:47;8.73;;;4.10;;
27728;SDS011;15126;42.186;24.340;2024-01-10T05:26:14;6.10;;;3.78;;
27728;SDS011;15126;42.186;24.340;2024-01-10T05:28:39;6.65;;;3.60;;
27728;SDS011;15126;42.186;24.340;2024-01-10T05:31:05;6.53;;;3.30;;
27728;SDS011;15126;42.186;24.340;2024-01-10T05:33:31;8.80;;;4.80;;
27728;SDS011;15126;42.186;24.340;2024-01-10T05:35:57;8.82;;;4.60;;
27728;SDS011;15126;42.186;24.340;2024-01-10T05:38:23;6.25;;;4.13;;
27728;SDS011;15126;42.186;24.340;2024-01-10T05:40:48;9.10;;;4.25;;
27728;SDS011;15126;42.186;24.340;2024-01-10T05:43:18;10.75;;;4.75;;
27728;SDS011;15126;42.186;24.340;2024-01-10T05:45:43;8.93;;;5.05;;
27728;SDS011;15126;42.186;24.340;2024-01-10T05:48:14;9.18;;;4.75;;
27728;SDS011;15126;42.186;24.340;2024-01-10T05:50:45;15.77;;;7.45;;
27728;SDS011;15126;42.186;24.340;2024-01-10T05:53:11;19.33;;;9.95;;
27728;SDS011;15126;42.186;24.340;2024-01-10T05:55:39;17.17;;;7.75;;
27728;SDS011;15126;42.186;24.340;2024-01-10T05:58:04;11.07;;;5.53;;
27728;SDS011;15126;42.186;24.340;2024-01-10T06:00:30;16.08;;;6.40;;
27728;SDS011;15126;42.186;24.340;2024-01-10T06:02:56;12.57;;;5.65;;
27728;SDS011;15126;42.186;24.340;2024-01-10T06:05:21;13.52;;;6.90;;
27728;SDS011;15126;42.186;24.340;2024-01-10T06:07:49;11.40;;;6.53;;
27728;SDS011;15126;42.186;24.340;2024-01-10T06:10:14;12.70;;;6.68;;
27728;SDS011;15126;42.186;24.340;2024-01-10T06:12:40;12.13;;;6.25;;
27728;SDS011;15126;42.186;24.340;2024-01-10T06:15:06;14.35;;;6.22;;
27728;SDS011;15126;42.186;24.340;2024-01-10T06:17:32;12.02;;;6.75;;
27728;SDS011;15126;42.186;24.340;2024-01-10T06:19:57;13.55;;;5.93;;
27728;SDS011;15126;42.186;24.340;2024-01-10T06:22:25;15.13;;;7.47;;
27728;SDS011;15126;42.186;24.340;2024-01-10T06:24:51;30.45;;;12.38;;
27728;SDS011;15126;42.186;24.340;2024-01-10T06:27:17;25.67;;;10.88;;
27728;SDS011;15126;42.186;24.340;2024-01-10T06:32:13;25.27;;;10.60;;
27728;SDS011;15126;42.186;24.340;2024-01-10T06:34:41;35.53;;;14.30;;
27728;SDS011;15126;42.186;24.340;2024-01-10T06:37:07;23.42;;;10.82;;
27728;SDS011;15126;42.186;24.340;2024-01-10T06:39:33;21.70;;;11.23;;
27728;SDS011;15126;42.186;24.340;2024-01-10T06:41:58;21.00;;;9.93;;
27728;SDS011;15126;42.186;24.340;2024-01-10T06:44:26;13.00;;;6.72;;
27728;SDS011;15126;42.186;24.340;2024-01-10T06:46:53;12.60;;;6.15;;
27728;SDS011;15126;42.186;24.340;2024-01-10T06:49:19;14.35;;;5.20;;
27728;SDS011;15126;42.186;24.340;2024-01-10T06:51:45;8.25;;;4.53;;
27728;SDS011;15126;42.186;24.340;2024-01-10T06:54:10;8.27;;;4.15;;
27728;SDS011;15126;42.186;24.340;2024-01-10T06:56:36;8.85;;;4.30;;
27728;SDS011;15126;42.186;24.340;2024-01-10T06:59:01;7.95;;;4.18;;
27728;SDS011;15126;42.186;24.340;2024-01-10T07:01:27;6.82;;;3.53;;
27728;SDS011;15126;42.186;24.340;2024-01-10T07:03:53;11.45;;;5.22;;
27728;SDS011;15126;42.186;24.340;2024-01-10T07:06:22;9.68;;;3.90;;
27728;SDS011;15126;42.186;24.340;2024-01-10T07:08:48;13.02;;;4.80;;
27728;SDS011;15126;42.186;24.340;2024-01-10T07:11:18;12.18;;;5.43;;
27728;SDS011;15126;42.186;24.340;2024-01-10T07:16:13;7.55;;;4.00;;
27728;SDS011;15126;42.186;24.340;2024-01-10T07:18:40;12.77;;;4.30;;
27728;SDS011;15126;42.186;24.340;2024-01-10T07:21:08;9.23;;;4.68;;
27728;SDS011;15126;42.186;24.340;2024-01-10T07:23:38;33.25;;;9.25;;
27728;SDS011;15126;42.186;24.340;2024-01-10T07:26:05;20.48;;;7.80;;
27728;SDS011;15126;42.186;24.340;2024-01-10T07:28:31;5.50;;;3.95;;
27728;SDS011;15126;42.186;24.340;2024-01-10T07:30:57;9.57;;;5.07;;
27728;SDS011;15126;42.186;24.340;2024-01-10T07:33:28;8.43;;;4.68;;
27728;SDS011;15126;42.186;24.340;2024-01-10T07:35:57;10.15;;;3.90;;
27728;SDS011;15126;42.186;24.340;2024-01-10T07:38:23;8.52;;;4.40;;
27728;SDS011;15126;42.186;24.340;2024-01-10T07:40:48;11.00;;;4.80;;
27728;SDS011;15126;42.186;24.340;2024-01-10T07:43:14;8.30;;;4.40;;
27728;SDS011;15126;42.186;24.340;2024-01-10T07:45:40;6.78;;;4.03;;
27728;SDS011;15126;42.186;24.340;2024-01-10T07:48:05;9.00;;;5.05;;
27728;SDS011;15126;42.186;24.340;2024-01-10T07:50:31;12.10;;;4.63;;
27728;SDS011;15126;42.186;24.340;2024-01-10T07:53:04;7.45;;;3.80;;
27728;SDS011;15126;42.186;24.340;2024-01-10T07:55:30;8.45;;;4.55;;
27728;SDS011;15126;42.186;24.340;2024-01-10T07:57:55;6.97;;;3.97;;
27728;SDS011;15126;42.186;24.340;2024-01-10T08:00:21;7.80;;;4.05;;
27728;SDS011;15126;42.186;24.340;2024-01-10T08:02:47;7.93;;;4.05;;
27728;SDS011;15126;42.186;24.340;2024-01-10T08:05:14;7.28;;;4.47;;
27728;SDS011;15126;42.186;24.340;2024-01-10T08:07:40;11.23;;;5.47;;
27728;SDS011;15126;42.186;24.340;2024-01-10T08:10:06;10.80;;;4.53;;
27728;SDS011;15126;42.186;24.340;2024-01-10T08:12:34;7.00;;;4.15;;
27728;SDS011;15126;42.186;24.340;2024-01-10T08:14:59;9.15;;;5.18;;
27728;SDS011;15126;42.186;24.340;2024-01-10T08:17:25;9.05;;;4.40;;
27728;SDS011;15126;42.186;24.340;2024-01-10T08:19:56;10.40;;;4.75;;
27728;SDS011;15126;42.186;24.340;2024-01-10T08:22:21;9.82;;;4.40;;
27728;SDS011;15126;42.186;24.340;2024-01-10T08:24:48;8.88;;;4.63;;
27728;SDS011;15126;42.186;24.340;2024-01-10T08:27:17;9.00;;;4.43;;
27728;SDS011;15126;42.186;24.340;2024-01-10T08:29:48;8.30;;;5.07;;
27728;SDS011;15126;42.186;24.340;2024-01-10T08:32:13;9.55;;;4.53;;
27728;SDS011;15126;42.186;24.340;2024-01-10T08:34:40;12.00;;;4.93;;
27728;SDS011;15126;42.186;24.340;2024-01-10T08:37:05;8.25;;;4.72;;
27728;SDS011;15126;42.186;24.340;2024-01-10T08:39:31;7.90;;;4.32;;
27728;SDS011;15126;42.186;24.340;2024-01-10T08:41:57;10.38;;;4.80;;
27728;SDS011;15126;42.186;24.340;2024-01-10T08:44:22;6.93;;;4.60;;
27728;SDS011;15126;42.186;24.340;2024-01-10T08:46:50;10.75;;;5.70;;
27728;SDS011;15126;42.186;24.340;2024-01-10T08:49:19;9.30;;;4.90;;
27728;SDS011;15126;42.186;24.340;2024-01-10T08:51:45;9.95;;;4.93;;
27728;SDS011;15126;42.186;24.340;2024-01-10T08:54:11;9.25;;;3.90;;
27728;SDS011;15126;42.186;24.340;2024-01-10T08:56:51;9.38;;;4.30;;
27728;SDS011;15126;42.186;24.340;2024-01-10T08:59:16;7.80;;;3.63;;
27728;SDS011;15126;42.186;24.340;2024-01-10T09:01:44;7.22;;;4.13;;
27728;SDS011;15126;42.186;24.340;2024-01-10T09:04:12;9.05;;;3.97;;
27728;SDS011;15126;42.186;24.340;2024-01-10T09:06:38;7.65;;;3.90;;
27728;SDS011;15126;42.186;24.340;2024-01-10T09:09:03;7.25;;;3.28;;
27728;SDS011;15126;42.186;24.340;2024-01-10T09:11:29;6.50;;;3.22;;
27728;SDS011;15126;42.186;24.340;2024-01-10T09:13:55;7.38;;;3.40;;
27728;SDS011;15126;42.186;24.340;2024-01-10T09:16:20;5.63;;;3.15;;
27728;SDS011;15126;42.186;24.340;2024-01-10T09:18:48;6.30;;;3.55;;
27728;SDS011;15126;42.186;24.340;2024-01-10T09:21:19;8.13;;;3.78;;
27728;SDS011;15126;42.186;24.340;2024-01-10T09:23:45;4.57;;;2.97;;
27728;SDS011;15126;42.186;24.340;2024-01-10T09:26:10;9.80;;;3.30;;
27728;SDS011;15126;42.186;24.340;2024-01-10T09:28:36;7.10;;;2.85;;
27728;SDS011;15126;42.186;24.340;2024-01-10T09:31:02;5.35;;;2.58;;
27728;SDS011;15126;42.186;24.340;2024-01-10T09:33:27;4.68;;;2.25;;
27728;SDS011;15126;42.186;24.340;2024-01-10T09:35:53;4.32;;;2.70;;
27728;SDS011;15126;42.186;24.340;2024-01-10T09:38:18;5.35;;;2.53;;
27728;SDS011;15126;42.186;24.340;2024-01-10T09:40:46;9.35;;;3.30;;
27728;SDS011;15126;42.186;24.340;2024-01-10T09:43:12;4.72;;;2.97;;
27728;SDS011;15126;42.186;24.340;2024-01-10T09:45:40;3.40;;;2.50;;
27728;SDS011;15126;42.186;24.340;2024-01-10T09:48:11;7.55;;;2.33;;
27728;SDS011;15126;42.186;24.340;2024-01-10T09:50:41;6.85;;;2.60;;
27728;SDS011;15126;42.186;24.340;2024-01-10T09:53:07;5.95;;;3.38;;
27728;SDS011;15126;42.186;24.340;2024-01-10T09:55:35;10.80;;;3.95;;
27728;SDS011;15126;42.186;24.340;2024-01-10T09:58:05;6.50;;;3.13;;
27728;SDS011;15126;42.186;24.340;2024-01-10T10:00:33;5.43;;;2.88;;
27728;SDS011;15126;42.186;24.340;2024-01-10T10:03:01;4.20;;;2.65;;
27728;SDS011;15126;42.186;24.340;2024-01-10T10:05:29;5.38;;;3.42;;
27728;SDS011;15126;42.186;24.340;2024-01-10T10:07:55;5.90;;;3.10;;
27728;SDS011;15126;42.186;24.340;2024-01-10T10:10:22;5.28;;;3.40;;
27728;SDS011;15126;42.186;24.340;2024-01-10T10:12:52;10.43;;;4.75;;
27728;SDS011;15126;42.186;24.340;2024-01-10T10:15:20;9.38;;;4.32;;
27728;SDS011;15126;42.186;24.340;2024-01-10T10:17:47;12.02;;;5.07;;
27728;SDS011;15126;42.186;24.340;2024-01-10T10:20:21;8.07;;;3.95;;
27728;SDS011;15126;42.186;24.340;2024-01-10T10:23:00;9.18;;;4.35;;
27728;SDS011;15126;42.186;24.340;2024-01-10T10:25:32;7.82;;;4.03;;
27728;SDS011;15126;42.186;24.340;2024-01-10T10:27:59;9.73;;;5.13;;
27728;SDS011;15126;42.186;24.340;2024-01-10T10:30:26;9.77;;;4.85;;
27728;SDS011;15126;42.186;24.340;2024-01-10T10:32:55;13.57;;;4.65;;
27728;SDS011;15126;42.186;24.340;2024-01-10T10:35:21;10.35;;;4.80;;
27728;SDS011;15126;42.186;24.340;2024-01-10T10:37:51;8.63;;;4.40;;
27728;SDS011;15126;42.186;24.340;2024-01-10T10:40:17;11.07;;;5.82;;
27728;SDS011;15126;42.186;24.340;2024-01-10T10:42:46;10.15;;;5.35;;
27728;SDS011;15126;42.186;24.340;2024-01-10T10:45:17;7.90;;;4.82;;
27728;SDS011;15126;42.186;24.340;2024-01-10T10:47:44;12.40;;;5.55;;
27728;SDS011;15126;42.186;24.340;2024-01-10T10:50:19;9.18;;;5.63;;
27728;SDS011;15126;42.186;24.340;2024-01-10T10:52:50;11.25;;;5.93;;
27728;SDS011;15126;42.186;24.340;2024-01-10T10:55:16;10.68;;;4.93;;
27728;SDS011;15126;42.186;24.340;2024-01-10T10:57:46;11.15;;;5.53;;
27728;SDS011;15126;42.186;24.340;2024-01-10T11:00:18;17.63;;;6.82;;
27728;SDS011;15126;42.186;24.340;2024-01-10T11:02:45;11.85;;;5.93;;
27728;SDS011;15126;42.186;24.340;2024-01-10T11:05:11;11.15;;;5.97;;
27728;SDS011;15126;42.186;24.340;2024-01-10T11:10:12;13.20;;;5.20;;
27728;SDS011;15126;42.186;24.340;2024-01-10T11:18:03;11.13;;;5.75;;
27728;SDS011;15126;42.186;24.340;2024-01-10T11:25:43;13.23;;;6.90;;
27728;SDS011;15126;42.186;24.340;2024-01-10T11:28:10;26.95;;;9.40;;
27728;SDS011;15126;42.186;24.340;2024-01-10T11:30:37;27.77;;;12.10;;
27728;SDS011;15126;42.186;24.340;2024-01-10T11:33:23;9.68;;;4.72;;
27728;SDS011;15126;42.186;24.340;2024-01-10T11:36:08;11.77;;;5.55;;
27728;SDS011;15126;42.186;24.340;2024-01-10T11:38:41;8.25;;;4.13;;
27728;SDS011;15126;42.186;24.340;2024-01-10T11:46:47;17.20;;;5.13;;
27728;SDS011;15126;42.186;24.340;2024-01-10T11:49:14;98.72;;;26.73;;
27728;SDS011;15126;42.186;24.340;2024-01-10T11:51:45;88.65;;;38.63;;
27728;SDS011;15126;42.186;24.340;2024-01-10T11:54:11;12.48;;;5.32;;
27728;SDS011;15126;42.186;24.340;2024-01-10T11:59:07;13.85;;;5.45;;
27728;SDS011;15126;42.186;24.340;2024-01-10T12:01:36;20.30;;;10.20;;
27728;SDS011;15126;42.186;24.340;2024-01-10T12:04:03;18.33;;;9.82;;
27728;SDS011;15126;42.186;24.340;2024-01-10T12:06:31;10.52;;;5.57;;
27728;SDS011;15126;42.186;24.340;2024-01-10T12:08:57;10.68;;;5.35;;
27728;SDS011;15126;42.186;24.340;2024-01-10T12:11:24;10.55;;;5.53;;
27728;SDS011;15126;42.186;24.340;2024-01-10T12:13:50;17.10;;;7.53;;
27728;SDS011;15126;42.186;24.340;2024-01-10T12:16:16;39.33;;;15.50;;
27728;SDS011;15126;42.186;24.340;2024-01-10T12:18:43;29.02;;;10.82;;
27728;SDS011;15126;42.186;24.340;2024-01-10T12:21:09;23.73;;;7.75;;
27728;SDS011;15126;42.186;24.340;2024-01-10T12:23:38;6.55;;;3.85;;
27728;SDS011;15126;42.186;24.340;2024-01-10T12:26:13;7.75;;;4.70;;
27728;SDS011;15126;42.186;24.340;2024-01-10T12:28:39;15.05;;;9.45;;
27728;SDS011;15126;42.186;24.340;2024-01-10T12:31:07;7.60;;;4.95;;
27728;SDS011;15126;42.186;24.340;2024-01-10T12:33:33;7.20;;;4.13;;
27728;SDS011;15126;42.186;24.340;2024-01-10T12:38:29;8.52;;;3.53;;
27728;SDS011;15126;42.186;24.340;2024-01-10T12:40:56;8.20;;;3.53;;
27728;SDS011;15126;42.186;24.340;2024-01-10T12:43:22;9.48;;;4.13;;
27728;SDS011;15126;42.186;24.340;2024-01-10T12:45:48;14.07;;;6.80;;
27728;SDS011;15126;42.186;24.340;2024-01-10T12:48:27;8.82;;;4.68;;
27728;SDS011;15126;42.186;24.340;2024-01-10T12:50:52;8.70;;;4.47;;
27728;SDS011;15126;42.186;24.340;2024-01-10T12:53:18;6.70;;;3.63;;
27728;SDS011;15126;42.186;24.340;2024-01-10T12:55:43;7.60;;;4.18;;
27728;SDS011;15126;42.186;24.340;2024-01-10T12:58:09;9.18;;;4.10;;
27728;SDS011;15126;42.186;24.340;2024-01-10T13:00:34;9.80;;;3.95;;
27728;SDS011;15126;42.186;24.340;2024-01-10T13:03:00;10.18;;;4.82;;
27728;SDS011;15126;42.186;24.340;2024-01-10T13:05:28;10.70;;;4.15;;
27728;SDS011;15126;42.186;24.340;2024-01-10T13:07:54;10.48;;;4.60;;
27728;SDS011;15126;42.186;24.340;2024-01-10T13:10:20;9.70;;;4.68;;
27728;SDS011;15126;42.186;24.340;2024-01-10T13:12:45;10.63;;;4.97;;
27728;SDS011;15126;42.186;24.340;2024-01-10T13:15:14;7.90;;;4.07;;
27728;SDS011;15126;42.186;24.340;2024-01-10T13:17:41;10.13;;;5.50;;
27728;SDS011;15126;42.186;24.340;2024-01-10T13:20:07;11.73;;;5.45;;
27728;SDS011;15126;42.186;24.340;2024-01-10T13:22:36;8.43;;;4.38;;
27728;SDS011;15126;42.186;24.340;2024-01-10T13:25:05;8.45;;;4.68;;
27728;SDS011;15126;42.186;24.340;2024-01-10T13:27:31;11.25;;;5.22;;
27728;SDS011;15126;42.186;24.340;2024-01-10T13:29:58;7.15;;;4.13;;
27728;SDS011;15126;42.186;24.340;2024-01-10T13:32:24;10.30;;;4.40;;
27728;SDS011;15126;42.186;24.340;2024-01-10T13:34:51;9.52;;;4.80;;
27728;SDS011;15126;42.186;24.340;2024-01-10T13:37:16;8.68;;;4.65;;
27728;SDS011;15126;42.186;24.340;2024-01-10T13:39:41;12.68;;;5.25;;
27728;SDS011;15126;42.186;24.340;2024-01-10T13:42:07;18.23;;;8.00;;
27728;SDS011;15126;42.186;24.340;2024-01-10T13:44:35;14.45;;;8.57;;
27728;SDS011;15126;42.186;24.340;2024-01-10T13:47:01;12.23;;;5.68;;
27728;SDS011;15126;42.186;24.340;2024-01-10T13:49:28;12.18;;;5.47;;
27728;SDS011;15126;42.186;24.340;2024-01-10T13:51:54;10.40;;;4.90;;
27728;SDS011;15126;42.186;24.340;2024-01-10T13:54:19;9.25;;;4.80;;
27728;SDS011;15126;42.186;24.340;2024-01-10T13:56:46;10.32;;;5.15;;
27728;SDS011;15126;42.186;24.340;2024-01-10T13:59:11;11.30;;;5.05;;
27728;SDS011;15126;42.186;24.340;2024-01-10T14:01:37;9.27;;;4.63;;
27728;SDS011;15126;42.186;24.340;2024-01-10T14:04:02;7.35;;;4.93;;
27728;SDS011;15126;42.186;24.340;2024-01-10T14:06:28;10.40;;;4.88;;
27728;SDS011;15126;42.186;24.340;2024-01-10T14:08:56;10.65;;;5.50;;
27728;SDS011;15126;42.186;24.340;2024-01-10T14:11:24;11.55;;;5.32;;
27728;SDS011;15126;42.186;24.340;2024-01-10T14:13:52;13.43;;;6.30;;
27728;SDS011;15126;42.186;24.340;2024-01-10T14:16:18;10.70;;;5.00;;
27728;SDS011;15126;42.186;24.340;2024-01-10T14:18:43;8.25;;;4.85;;
27728;SDS011;15126;42.186;24.340;2024-01-10T14:21:09;12.40;;;5.22;;
27728;SDS011;15126;42.186;24.340;2024-01-10T14:23:34;8.75;;;4.78;;
27728;SDS011;15126;42.186;24.340;2024-01-10T14:26:01;8.80;;;4.75;;
27728;SDS011;15126;42.186;24.340;2024-01-10T14:28:27;8.52;;;4.30;;
27728;SDS011;15126;42.186;24.340;2024-01-10T14:30:52;9.00;;;4.38;;
27728;SDS011;15126;42.186;24.340;2024-01-10T14:33:18;8.25;;;3.70;;
27728;SDS011;15126;42.186;24.340;2024-01-10T14:35:43;8.38;;;3.92;;
27728;SDS011;15126;42.186;24.340;2024-01-10T14:38:09;8.18;;;4.15;;
27728;SDS011;15126;42.186;24.340;2024-01-10T14:40:35;9.75;;;3.97;;
27728;SDS011;15126;42.186;24.340;2024-01-10T14:43:01;7.50;;;3.97;;
27728;SDS011;15126;42.186;24.340;2024-01-10T14:45:26;6.72;;;3.42;;
27728;SDS011;15126;42.186;24.340;2024-01-10T14:47:52;7.03;;;3.95;;
27728;SDS011;15126;42.186;24.340;2024-01-10T14:50:18;10.52;;;3.28;;
27728;SDS011;15126;42.186;24.340;2024-01-10T14:52:44;10.25;;;4.30;;
27728;SDS011;15126;42.186;24.340;2024-01-10T14:55:12;12.18;;;3.97;;
27728;SDS011;15126;42.186;24.340;2024-01-10T14:57:38;15.68;;;5.03;;